createdAt,value
2022-08-14T00:01:54.695Z,82.08
2022-08-14T00:04:31.965Z,82.16
2022-08-14T00:07:07.057Z,81.60
2022-08-14T00:09:56.373Z,81.36
2022-08-14T00:12:23.821Z,80.85
2022-08-14T00:14:54.890Z,80.79
2022-08-14T00:17:22.071Z,80.82
2022-08-14T00:19:48.447Z,81.44
2022-08-14T00:22:44.634Z,81.69
2022-08-14T00:25:06.518Z,81.68
2022-08-14T00:27:35.423Z,81.29
2022-08-14T00:30:07.354Z,81.57
2022-08-14T00:32:52.249Z,81.84
2022-08-14T00:35:20.312Z,81.05
2022-08-14T00:38:02.330Z,80.67
2022-08-14T00:40:35.440Z,80.36
2022-08-14T00:43:02.394Z,81.04
2022-08-14T00:45:30.440Z,81.23
2022-08-14T00:47:58.325Z,81.49
2022-08-14T00:50:28.305Z,82.02
2022-08-14T00:52:56.117Z,82.69
2022-08-14T00:55:23.262Z,83.42
2022-08-14T00:58:10.046Z,83.15
2022-08-14T01:00:45.507Z,82.54
2022-08-14T01:03:20.301Z,83.71
2022-08-14T01:05:52.216Z,84.55
2022-08-14T01:08:51.576Z,84.58
2022-08-14T01:11:08.225Z,83.50
2022-08-14T01:13:42.197Z,83.29
2022-08-14T01:16:13.993Z,84.31
2022-08-14T01:19:01.376Z,84.86
2022-08-14T01:21:38.515Z,84.57
2022-08-14T01:24:15.199Z,83.97
2022-08-14T01:26:52.455Z,84.31
2022-08-14T01:29:43.147Z,84.94
2022-08-14T01:32:07.132Z,84.89
2022-08-14T01:35:18.014Z,85.13
2022-08-14T01:37:23.428Z,85.30
2022-08-14T01:39:50.162Z,85.95
2022-08-14T01:42:31.175Z,84.82
2022-08-14T01:45:05.340Z,84.12
2022-08-14T01:47:37.328Z,84.82
2022-08-14T01:50:06.276Z,85.11
2022-08-14T01:52:59.351Z,84.71
2022-08-14T01:55:32.303Z,84.58
2022-08-14T01:58:01.406Z,84.52
2022-08-14T02:00:44.892Z,85.18
2022-08-14T02:03:15.876Z,84.96
2022-08-14T02:05:42.263Z,84.87
2022-08-14T02:08:10.541Z,85.52
2022-08-14T02:10:47.185Z,85.12
2022-08-14T02:13:16.043Z,85.79
2022-08-14T02:15:43.451Z,85.68
2022-08-14T02:18:10.415Z,85.11
2022-08-14T02:20:38.540Z,84.77
2022-08-14T02:23:06.584Z,85.12
2022-08-14T02:25:34.888Z,85.40
2022-08-14T02:28:22.971Z,84.88
2022-08-14T02:30:48.541Z,84.07
2022-08-14T02:33:19.544Z,84.00
2022-08-14T02:35:48.251Z,84.59
2022-08-14T02:38:29.572Z,84.69
2022-08-14T02:40:58.447Z,84.39
2022-08-14T02:43:37.398Z,83.74
2022-08-14T02:46:13.610Z,84.66
2022-08-14T02:49:02.561Z,85.51
2022-08-14T02:51:36.364Z,85.14
2022-08-14T02:54:05.242Z,85.03
2022-08-14T02:57:14.415Z,84.74
2022-08-14T02:59:19.357Z,85.10
2022-08-14T03:01:50.298Z,86.30
2022-08-14T03:04:20.170Z,86.00
2022-08-14T03:06:57.797Z,85.16
2022-08-14T03:09:41.941Z,85.45
2022-08-14T03:12:26.971Z,85.07
2022-08-14T03:14:58.801Z,84.52
2022-08-14T03:17:26.396Z,83.96
2022-08-14T03:19:58.114Z,84.31
2022-08-14T03:22:25.289Z,84.76
2022-08-14T03:24:54.187Z,85.26
2022-08-14T03:27:20.532Z,85.90
2022-08-14T03:29:52.846Z,87.22
2022-08-14T03:32:20.208Z,86.68
2022-08-14T03:34:58.548Z,86.78
2022-08-14T03:39:09.222Z,86.82
2022-08-14T03:40:12.885Z,86.63
2022-08-14T03:42:45.313Z,86.56
2022-08-14T03:45:25.561Z,86.07
2022-08-14T03:48:01.819Z,85.33
2022-08-14T03:50:31.601Z,85.19
2022-08-14T03:53:03.064Z,85.84
2022-08-14T03:55:30.671Z,86.50
2022-08-14T03:57:57.881Z,86.70
2022-08-14T04:00:40.575Z,86.41
2022-08-14T04:03:13.288Z,85.66
2022-08-14T04:05:48.578Z,86.37
2022-08-14T04:08:22.920Z,86.84
2022-08-14T04:10:57.309Z,86.19
2022-08-14T04:13:24.070Z,85.79
2022-08-14T04:16:01.402Z,87.25
2022-08-14T04:18:29.714Z,88.86
2022-08-14T04:20:57.988Z,88.63
2022-08-14T04:23:31.867Z,87.96
2022-08-14T04:26:01.913Z,87.60
2022-08-14T04:29:08.190Z,87.56
2022-08-14T04:31:15.676Z,88.07
2022-08-14T04:33:42.449Z,88.95
2022-08-14T04:36:16.111Z,89.47
2022-08-14T04:39:03.101Z,89.74
2022-08-14T04:41:48.079Z,90.10
2022-08-14T04:44:36.233Z,89.79
2022-08-14T04:47:22.111Z,89.56
2022-08-14T04:49:56.939Z,88.87
2022-08-14T04:52:24.884Z,88.59
2022-08-14T04:54:51.470Z,89.47
2022-08-14T04:57:17.910Z,89.75
2022-08-14T04:59:45.737Z,89.46
2022-08-14T05:02:13.684Z,89.32
2022-08-14T05:04:45.286Z,88.98
2022-08-14T05:07:46.496Z,88.65
2022-08-14T05:10:13.002Z,87.18
2022-08-14T05:13:12.780Z,86.56
2022-08-14T05:15:29.423Z,85.36
2022-08-14T05:18:16.837Z,84.99
2022-08-14T05:21:55.938Z,84.81
2022-08-14T05:23:37.285Z,83.53
2022-08-14T05:26:13.189Z,83.87
2022-08-14T05:28:44.699Z,83.43
2022-08-14T05:31:13.844Z,83.60
2022-08-14T05:33:54.900Z,83.83
2022-08-14T05:36:23.751Z,83.02
2022-08-14T05:38:50.949Z,81.97
2022-08-14T05:41:20.024Z,80.98
2022-08-14T05:43:49.976Z,79.70
2022-08-14T05:46:18.980Z,80.37
2022-08-14T05:48:50.296Z,79.78
2022-08-14T05:51:17.045Z,80.08
2022-08-14T05:53:43.738Z,80.70
2022-08-14T05:56:29.189Z,81.11
2022-08-14T05:58:55.858Z,81.10
2022-08-14T06:01:22.392Z,82.00
2022-08-14T06:03:50.182Z,80.16
2022-08-14T06:06:23.256Z,79.57
2022-08-14T06:08:52.646Z,79.14
2022-08-14T06:11:27.988Z,80.00
2022-08-14T06:13:58.478Z,78.79
2022-08-14T06:16:24.853Z,79.30
2022-08-14T06:18:52.475Z,77.61
2022-08-14T06:21:20.205Z,77.30
2022-08-14T06:23:48.950Z,76.08
2022-08-14T06:26:15.730Z,76.05
2022-08-14T06:28:45.611Z,76.03
2022-08-14T06:31:12.178Z,75.91
2022-08-14T06:35:01.413Z,74.88
2022-08-14T06:36:25.324Z,74.81
2022-08-14T06:38:53.816Z,74.49
2022-08-14T06:41:56.700Z,75.00
2022-08-14T06:44:07.303Z,74.33
2022-08-14T06:46:37.191Z,73.74
2022-08-14T06:49:04.309Z,73.81
2022-08-14T06:51:38.460Z,74.13
2022-08-14T06:56:54.314Z,72.75
2022-08-14T07:11:47.914Z,72.47
2022-08-14T07:14:56.960Z,72.25
2022-08-14T07:20:32.073Z,70.98
2022-08-14T07:23:07.821Z,70.87
2022-08-14T07:25:40.433Z,70.89
2022-08-14T07:28:20.542Z,70.10
2022-08-14T07:30:51.075Z,69.65
2022-08-14T07:36:09.065Z,70.57
2022-08-14T07:38:53.840Z,69.14
2022-08-14T07:41:20.262Z,68.87
2022-08-14T07:43:57.611Z,69.03
2022-08-14T07:46:28.228Z,69.49
2022-08-14T07:48:58.156Z,69.74
2022-08-14T07:51:25.969Z,69.59
2022-08-14T07:56:48.338Z,69.29
2022-08-14T07:59:17.829Z,71.05
2022-08-14T08:01:51.445Z,70.37
2022-08-14T08:04:25.247Z,69.87
2022-08-14T08:06:54.860Z,70.57
2022-08-14T08:09:32.346Z,70.18
2022-08-14T08:12:05.081Z,68.19
2022-08-14T08:17:20.936Z,67.67
2022-08-14T08:19:48.415Z,67.23
2022-08-14T08:22:18.554Z,66.27
2022-08-14T08:27:21.473Z,64.41
2022-08-14T08:29:50.665Z,65.92
2022-08-14T08:32:18.195Z,64.92
2022-08-14T08:34:46.449Z,64.92
2022-08-14T08:37:14.026Z,63.98
2022-08-14T08:40:02.334Z,62.67
2022-08-14T08:42:38.805Z,62.37
2022-08-14T08:45:25.193Z,62.27
2022-08-14T08:47:54.345Z,61.77
2022-08-14T08:50:31.282Z,62.02
2022-08-14T08:53:05.144Z,62.02
2022-08-14T08:55:38.472Z,63.43
2022-08-14T08:58:12.369Z,61.01
2022-08-14T09:00:47.084Z,59.64
2022-08-14T09:07:00.945Z,60.37
2022-08-14T09:11:37.464Z,58.55
2022-08-14T09:14:04.737Z,59.71
2022-08-14T09:16:32.323Z,58.27
2022-08-14T09:21:48.396Z,58.99
2022-08-14T09:24:28.679Z,60.64
2022-08-14T09:30:31.379Z,60.09
2022-08-14T09:33:25.122Z,60.47
2022-08-14T09:38:57.206Z,61.38
2022-08-14T09:42:20.658Z,61.09
2022-08-14T09:45:08.454Z,61.27
2022-08-14T09:48:03.110Z,61.65
2022-08-14T09:50:45.970Z,61.26
2022-08-14T09:53:19.566Z,60.81
2022-08-14T09:55:59.280Z,61.72
2022-08-14T09:58:38.104Z,61.50
2022-08-14T10:01:20.370Z,61.75
2022-08-14T10:03:55.756Z,62.16
2022-08-14T10:06:28.247Z,63.07
2022-08-14T10:09:06.473Z,64.00
2022-08-14T10:11:43.365Z,64.61
2022-08-14T10:14:21.156Z,64.26
2022-08-14T10:17:18.869Z,64.41
2022-08-14T11:00:20.826Z,63.91
2022-08-14T11:03:02.800Z,62.59
2022-08-14T11:05:47.758Z,63.50
2022-08-14T11:08:16.424Z,62.85
2022-08-14T11:10:55.690Z,63.11
2022-08-14T11:13:28.840Z,64.24
2022-08-14T11:16:01.984Z,63.59
2022-08-14T11:18:35.859Z,63.11
2022-08-14T11:21:06.728Z,63.63
2022-08-14T11:23:38.131Z,63.43
2022-08-14T11:26:08.143Z,61.95
2022-08-14T11:28:47.543Z,62.52
2022-08-14T11:34:01.558Z,62.21
2022-08-14T11:36:35.069Z,61.20
2022-08-14T11:39:34.717Z,60.59
2022-08-14T11:42:58.508Z,59.98
2022-08-14T11:45:00.715Z,59.91
2022-08-14T12:03:57.212Z,55.48
2022-08-14T12:06:29.082Z,55.70
2022-08-14T13:05:47.365Z,50.57
2022-08-14T13:08:33.329Z,51.18
2022-08-14T16:00:54.744Z,51.27
2022-08-14T16:03:27.760Z,51.71
2022-08-14T16:06:04.362Z,51.45
2022-08-14T16:08:34.186Z,52.37
2022-08-14T16:11:03.354Z,51.47
2022-08-14T16:13:41.383Z,50.95
2022-08-14T16:16:49.364Z,51.20
2022-08-14T16:19:07.334Z,51.80
2022-08-14T16:21:39.401Z,51.58
2022-08-14T16:24:06.308Z,50.10
2022-08-14T16:26:33.738Z,51.83
2022-08-14T16:29:15.334Z,50.92
2022-08-14T16:31:43.581Z,51.23
2022-08-14T16:34:44.598Z,49.92
2022-08-14T16:36:58.828Z,50.64
2022-08-14T16:39:25.478Z,50.95
2022-08-14T16:41:58.584Z,51.66
2022-08-14T16:44:35.138Z,51.86
2022-08-14T16:47:03.829Z,51.66
2022-08-14T16:50:03.043Z,52.67
2022-08-14T16:52:25.762Z,51.97
2022-08-14T16:55:07.132Z,52.99
2022-08-14T16:57:34.007Z,53.14
2022-08-14T17:00:01.119Z,53.65
2022-08-14T17:02:41.626Z,52.89
2022-08-14T17:05:20.862Z,53.10
2022-08-14T17:08:28.502Z,53.42
2022-08-14T17:10:52.166Z,53.57
2022-08-14T17:13:47.429Z,54.76
2022-08-14T17:16:24.658Z,55.06
2022-08-14T17:19:00.128Z,55.84
2022-08-14T17:21:32.431Z,57.38
2022-08-14T17:24:57.434Z,56.33
2022-08-14T17:27:00.044Z,56.27
2022-08-14T17:29:32.880Z,56.75
2022-08-14T17:32:28.399Z,57.13
2022-08-14T17:34:55.413Z,57.87
2022-08-14T17:37:28.965Z,57.63
2022-08-14T17:40:15.209Z,59.50
2022-08-14T17:42:55.740Z,59.45
2022-08-14T17:45:38.846Z,59.73
2022-08-14T17:49:16.254Z,60.30
2022-08-14T17:51:16.960Z,60.35
2022-08-14T17:53:53.829Z,61.43
2022-08-14T17:56:31.455Z,60.58
2022-08-14T17:59:05.882Z,61.91
2022-08-14T18:01:37.733Z,61.90
2022-08-14T18:04:25.114Z,62.76
2022-08-14T18:06:58.497Z,62.85
2022-08-14T18:09:57.306Z,63.04
2022-08-14T18:12:41.098Z,63.71
2022-08-14T18:15:18.539Z,64.86
2022-08-14T18:17:53.251Z,65.70
2022-08-14T18:21:40.616Z,64.88
2022-08-14T18:23:13.098Z,65.03
2022-08-14T18:25:47.070Z,65.10
2022-08-14T18:28:18.350Z,65.29
2022-08-14T18:31:20.699Z,65.18
2022-08-14T18:33:58.750Z,65.93
2022-08-14T18:36:54.281Z,66.11
2022-08-14T18:39:29.731Z,66.32
2022-08-14T18:42:23.378Z,66.79
2022-08-14T18:44:50.570Z,66.40
2022-08-14T18:47:17.384Z,67.03
2022-08-14T18:49:52.958Z,67.21
2022-08-14T18:52:41.750Z,67.27
2022-08-14T18:55:20.990Z,68.16
2022-08-14T19:13:12.076Z,68.58
2022-08-14T19:15:56.286Z,68.89
2022-08-14T19:18:26.021Z,68.66
2022-08-14T19:31:55.711Z,69.82
2022-08-14T19:34:53.143Z,69.85
2022-08-14T19:37:56.096Z,69.72
2022-08-14T19:40:39.931Z,69.39
2022-08-14T19:43:09.549Z,69.28
2022-08-14T19:45:38.300Z,69.24
2022-08-14T19:48:12.767Z,69.19
2022-08-14T19:50:44.266Z,69.67
2022-08-14T19:53:17.280Z,69.25
2022-08-14T19:55:54.384Z,69.58
2022-08-14T19:58:27.981Z,68.99
2022-08-14T20:00:57.133Z,70.63
2022-08-14T20:03:24.756Z,70.89
2022-08-14T20:06:05.338Z,70.30
2022-08-14T20:09:05.885Z,69.52
2022-08-14T20:11:58.591Z,69.56
2022-08-14T20:14:29.752Z,69.58
2022-08-14T20:17:04.678Z,70.09
2022-08-14T20:19:37.900Z,69.46
2022-08-14T20:22:36.407Z,68.89
2022-08-14T20:25:10.902Z,68.95
2022-08-14T20:27:40.779Z,69.86
2022-08-14T20:30:29.682Z,69.62
2022-08-14T20:33:02.104Z,70.80
2022-08-14T20:35:43.306Z,71.19
2022-08-14T20:38:29.133Z,70.81
2022-08-14T20:41:00.949Z,70.74
2022-08-14T20:43:52.893Z,71.13
2022-08-14T20:46:29.541Z,71.05
2022-08-14T20:49:04.733Z,71.84
2022-08-14T20:51:47.528Z,72.40
2022-08-14T20:54:34.605Z,71.18
2022-08-14T20:57:11.324Z,70.37
2022-08-14T20:59:53.100Z,71.31
2022-08-14T21:02:34.288Z,71.98
2022-08-14T21:05:17.065Z,70.97
2022-08-14T21:07:51.182Z,70.81
2022-08-14T21:10:33.639Z,70.53
2022-08-14T21:13:26.442Z,69.94
2022-08-14T21:15:57.116Z,69.53
2022-08-14T21:18:28.614Z,69.58
2022-08-14T21:20:56.961Z,69.97
2022-08-14T21:23:23.541Z,70.41
2022-08-14T21:25:50.222Z,71.67
2022-08-14T21:28:29.307Z,71.68
2022-08-14T21:30:57.937Z,71.94
2022-08-14T21:33:25.232Z,71.87
2022-08-14T21:35:55.671Z,71.22
2022-08-14T21:38:34.231Z,70.85
2022-08-14T21:41:42.913Z,71.45
2022-08-14T21:44:17.401Z,70.63
2022-08-14T21:46:49.470Z,70.35
2022-08-14T21:49:22.369Z,69.94
2022-08-14T21:51:59.815Z,70.17
2022-08-14T21:54:49.794Z,70.04
2022-08-14T21:57:20.883Z,70.37
2022-08-14T22:00:35.176Z,69.52
2022-08-14T22:03:00.290Z,69.66
2022-08-14T22:05:29.476Z,69.67
2022-08-14T22:07:56.636Z,70.26
2022-08-14T22:10:24.245Z,71.70
2022-08-14T22:13:00.242Z,70.40
2022-08-14T22:15:27.774Z,69.99
2022-08-14T22:17:54.978Z,70.03
2022-08-14T22:20:25.466Z,69.92
2022-08-14T22:22:56.256Z,69.60
2022-08-14T22:25:34.081Z,69.40
2022-08-14T22:28:21.396Z,70.23
2022-08-14T22:30:55.010Z,71.16
2022-08-14T22:33:31.298Z,71.52
2022-08-14T22:35:59.000Z,71.67
2022-08-14T22:38:36.417Z,71.78
2022-08-14T22:41:25.650Z,71.66
2022-08-14T22:43:54.213Z,71.36
2022-08-14T22:46:21.225Z,72.96
2022-08-14T22:48:49.265Z,73.35
2022-08-14T22:51:18.214Z,74.83
2022-08-14T22:53:46.098Z,74.92
2022-08-14T22:56:20.866Z,75.20
2022-08-14T22:58:49.971Z,75.31
2022-08-14T23:01:56.293Z,75.48
2022-08-14T23:04:35.194Z,75.93
2022-08-14T23:07:21.932Z,76.68
2022-08-14T23:09:56.767Z,77.66
2022-08-14T23:12:27.386Z,78.23
2022-08-14T23:14:54.572Z,78.26
2022-08-14T23:17:21.438Z,78.20
2022-08-14T23:19:48.204Z,78.36
2022-08-14T23:22:22.667Z,78.95
2022-08-14T23:24:50.806Z,78.46
2022-08-14T23:27:27.061Z,78.92
2022-08-14T23:30:33.999Z,79.77
2022-08-14T23:33:01.754Z,79.70
2022-08-14T23:35:28.666Z,80.15
2022-08-14T23:38:01.783Z,80.11
2022-08-14T23:40:30.263Z,80.56
2022-08-14T23:43:09.708Z,80.11
2022-08-14T23:45:39.534Z,80.63
2022-08-14T23:48:12.396Z,80.34
2022-08-14T23:50:40.516Z,80.96
2022-08-14T23:53:28.324Z,81.43
2022-08-14T23:56:06.001Z,82.18
2022-08-14T23:58:37.002Z,82.40
